sensor_id;sensor_type;location;lat;lon;timestamp;pressure;altitude;pressure_sealevel;temperature;humidity
27146;BME280;17980;51.744;7.190;2022-08-16T00:02:23;100155.97;;;25.82;75.15
27146;BME280;17980;51.744;7.190;2022-08-16T00:04:50;100154.22;;;25.73;75.73
27146;BME280;17980;51.744;7.190;2022-08-16T00:07:18;100162.75;;;25.59;76.02
27146;BME280;17980;51.744;7.190;2022-08-16T00:09:45;100153.57;;;25.64;75.82
27146;BME280;17980;51.744;7.190;2022-08-16T00:14:49;100162.06;;;25.47;76.24
27146;BME280;17980;51.744;7.190;2022-08-16T00:17:20;100163.46;;;25.47;76.20
27146;BME280;17980;51.744;7.190;2022-08-16T00:19:47;100154.52;;;25.47;76.10
27146;BME280;17980;51.744;7.190;2022-08-16T00:22:14;100158.27;;;25.33;76.46
27146;BME280;17980;51.744;7.190;2022-08-16T00:27:19;100161.80;;;25.48;76.64
27146;BME280;17980;51.744;7.190;2022-08-16T00:29:47;100159.33;;;25.52;76.61
27146;BME280;17980;51.744;7.190;2022-08-16T00:32:14;100159.56;;;25.48;76.58
27146;BME280;17980;51.744;7.190;2022-08-16T00:34:41;100161.23;;;25.49;76.14
27146;BME280;17980;51.744;7.190;2022-08-16T00:37:09;100162.42;;;25.55;76.34
27146;BME280;17980;51.744;7.190;2022-08-16T00:39:36;100164.92;;;25.54;76.01
27146;BME280;17980;51.744;7.190;2022-08-16T00:42:04;100161.36;;;25.59;76.00
27146;BME280;17980;51.744;7.190;2022-08-16T00:44:35;100155.25;;;25.35;76.47
27146;BME280;17980;51.744;7.190;2022-08-16T00:47:06;100158.94;;;25.40;76.69
27146;BME280;17980;51.744;7.190;2022-08-16T00:52:12;100160.83;;;25.62;76.71
27146;BME280;17980;51.744;7.190;2022-08-16T00:54:39;100166.05;;;25.53;77.95
27146;BME280;17980;51.744;7.190;2022-08-16T00:57:07;100163.29;;;25.58;77.66
27146;BME280;17980;51.744;7.190;2022-08-16T01:02:13;100154.75;;;25.43;78.89
27146;BME280;17980;51.744;7.190;2022-08-16T01:04:41;100159.47;;;25.40;78.80
27146;BME280;17980;51.744;7.190;2022-08-16T01:07:08;100156.91;;;25.36;79.06
27146;BME280;17980;51.744;7.190;2022-08-16T01:09:37;100162.27;;;25.40;78.96
27146;BME280;17980;51.744;7.190;2022-08-16T01:12:07;100161.73;;;25.43;78.64
27146;BME280;17980;51.744;7.190;2022-08-16T01:14:39;100162.09;;;25.27;78.92
27146;BME280;17980;51.744;7.190;2022-08-16T01:19:47;100167.30;;;25.18;79.61
27146;BME280;17980;51.744;7.190;2022-08-16T01:25:03;100169.67;;;25.29;79.03
27146;BME280;17980;51.744;7.190;2022-08-16T01:27:35;100164.67;;;25.09;79.97
27146;BME280;17980;51.744;7.190;2022-08-16T01:30:05;100171.42;;;25.13;79.72
27146;BME280;17980;51.744;7.190;2022-08-16T01:32:34;100170.02;;;25.13;79.91
27146;BME280;17980;51.744;7.190;2022-08-16T01:35:08;100162.89;;;25.00;80.61
27146;BME280;17980;51.744;7.190;2022-08-16T01:37:42;100160.77;;;24.85;81.42
27146;BME280;17980;51.744;7.190;2022-08-16T01:40:13;100160.53;;;24.67;82.17
27146;BME280;17980;51.744;7.190;2022-08-16T01:42:41;100157.92;;;24.61;82.56
27146;BME280;17980;51.744;7.190;2022-08-16T01:45:09;100150.77;;;24.67;82.20
27146;BME280;17980;51.744;7.190;2022-08-16T01:47:37;100157.84;;;24.58;82.41
27146;BME280;17980;51.744;7.190;2022-08-16T01:52:44;100148.83;;;24.90;81.10
27146;BME280;17980;51.744;7.190;2022-08-16T01:55:12;100155.50;;;24.89;80.87
27146;BME280;17980;51.744;7.190;2022-08-16T01:57:41;100150.30;;;24.95;80.59
27146;BME280;17980;51.744;7.190;2022-08-16T02:00:11;100151.84;;;25.10;79.95
27146;BME280;17980;51.744;7.190;2022-08-16T02:05:15;100162.70;;;25.07;79.11
27146;BME280;17980;51.744;7.190;2022-08-16T02:07:42;100153.80;;;25.10;78.61
27146;BME280;17980;51.744;7.190;2022-08-16T02:10:11;100158.86;;;25.13;78.19
27146;BME280;17980;51.744;7.190;2022-08-16T02:12:38;100156.97;;;25.19;77.68
27146;BME280;17980;51.744;7.190;2022-08-16T02:17:46;100146.37;;;25.18;77.25
27146;BME280;17980;51.744;7.190;2022-08-16T02:20:14;100151.05;;;25.13;77.21
27146;BME280;17980;51.744;7.190;2022-08-16T02:22:42;100153.27;;;24.88;78.25
27146;BME280;17980;51.744;7.190;2022-08-16T02:25:12;100145.62;;;25.01;77.87
27146;BME280;17980;51.744;7.190;2022-08-16T02:27:41;100147.77;;;24.96;77.85
27146;BME280;17980;51.744;7.190;2022-08-16T02:30:12;100146.26;;;24.86;78.32
27146;BME280;17980;51.744;7.190;2022-08-16T02:35:17;100156.97;;;24.94;78.17
27146;BME280;17980;51.744;7.190;2022-08-16T02:37:44;100162.81;;;24.92;78.16
27146;BME280;17980;51.744;7.190;2022-08-16T02:40:13;100160.21;;;24.86;78.42
27146;BME280;17980;51.744;7.190;2022-08-16T02:42:42;100163.27;;;24.84;78.72
27146;BME280;17980;51.744;7.190;2022-08-16T02:45:10;100166.80;;;24.77;78.89
27146;BME280;17980;51.744;7.190;2022-08-16T02:47:37;100165.97;;;24.77;78.93
27146;BME280;17980;51.744;7.190;2022-08-16T02:50:09;100163.60;;;24.88;78.39
27146;BME280;17980;51.744;7.190;2022-08-16T02:52:36;100165.33;;;24.72;79.30
27146;BME280;17980;51.744;7.190;2022-08-16T02:55:06;100166.45;;;24.71;79.36
27146;BME280;17980;51.744;7.190;2022-08-16T02:57:34;100161.52;;;24.78;79.06
27146;BME280;17980;51.744;7.190;2022-08-16T03:00:03;100167.67;;;24.80;79.08
27146;BME280;17980;51.744;7.190;2022-08-16T03:02:34;100162.92;;;24.81;78.94
27146;BME280;17980;51.744;7.190;2022-08-16T03:05:02;100159.48;;;24.73;79.29
27146;BME280;17980;51.744;7.190;2022-08-16T03:07:30;100165.88;;;24.71;79.42
27146;BME280;17980;51.744;7.190;2022-08-16T03:12:34;100165.41;;;24.77;79.54
27146;BME280;17980;51.744;7.190;2022-08-16T03:15:04;100167.15;;;24.61;79.95
27146;BME280;17980;51.744;7.190;2022-08-16T03:20:17;100164.50;;;24.54;80.51
27146;BME280;17980;51.744;7.190;2022-08-16T03:22:44;100163.98;;;24.57;80.47
27146;BME280;17980;51.744;7.190;2022-08-16T03:25:14;100169.56;;;24.57;80.52
27146;BME280;17980;51.744;7.190;2022-08-16T03:27:42;100164.55;;;24.57;80.62
27146;BME280;17980;51.744;7.190;2022-08-16T03:30:14;100173.39;;;24.51;80.47
27146;BME280;17980;51.744;7.190;2022-08-16T03:32:41;100173.30;;;24.46;80.86
27146;BME280;17980;51.744;7.190;2022-08-16T03:35:09;100175.39;;;24.36;81.12
27146;BME280;17980;51.744;7.190;2022-08-16T03:37:37;100172.19;;;24.28;81.58
27146;BME280;17980;51.744;7.190;2022-08-16T03:40:09;100166.73;;;24.18;82.18
27146;BME280;17980;51.744;7.190;2022-08-16T03:42:36;100166.16;;;23.99;83.04
27146;BME280;17980;51.744;7.190;2022-08-16T03:45:06;100163.22;;;24.06;83.09
27146;BME280;17980;51.744;7.190;2022-08-16T03:50:11;100169.30;;;24.03;83.27
27146;BME280;17980;51.744;7.190;2022-08-16T03:52:40;100169.21;;;23.98;83.37
27146;BME280;17980;51.744;7.190;2022-08-16T03:55:09;100161.36;;;23.95;83.57
27146;BME280;17980;51.744;7.190;2022-08-16T03:57:37;100159.36;;;23.93;83.52
27146;BME280;17980;51.744;7.190;2022-08-16T04:02:44;100171.90;;;23.93;83.75
27146;BME280;17980;51.744;7.190;2022-08-16T04:05:12;100164.78;;;23.85;84.10
27146;BME280;17980;51.744;7.190;2022-08-16T04:07:40;100169.92;;;23.91;83.91
27146;BME280;17980;51.744;7.190;2022-08-16T04:10:11;100169.37;;;23.91;83.70
27146;BME280;17980;51.744;7.190;2022-08-16T04:15:16;100179.63;;;23.88;84.29
27146;BME280;17980;51.744;7.190;2022-08-16T04:17:47;100181.50;;;23.85;83.91
27146;BME280;17980;51.744;7.190;2022-08-16T04:20:14;100186.48;;;23.68;84.71
27146;BME280;17980;51.744;7.190;2022-08-16T04:22:43;100183.37;;;23.65;85.02
27146;BME280;17980;51.744;7.190;2022-08-16T04:25:11;100180.97;;;23.71;84.48
27146;BME280;17980;51.744;7.190;2022-08-16T04:27:39;100189.02;;;23.70;84.55
27146;BME280;17980;51.744;7.190;2022-08-16T04:30:11;100187.02;;;23.51;85.28
27146;BME280;17980;51.744;7.190;2022-08-16T04:32:39;100190.59;;;23.63;85.20
27146;BME280;17980;51.744;7.190;2022-08-16T04:35:10;100195.61;;;23.64;84.83
27146;BME280;17980;51.744;7.190;2022-08-16T04:37:37;100189.53;;;23.67;84.78
27146;BME280;17980;51.744;7.190;2022-08-16T04:42:44;100197.05;;;23.66;84.76
27146;BME280;17980;51.744;7.190;2022-08-16T04:45:14;100195.20;;;23.72;84.63
27146;BME280;17980;51.744;7.190;2022-08-16T04:47:41;100200.58;;;23.76;84.34
27146;BME280;17980;51.744;7.190;2022-08-16T04:50:11;100197.43;;;23.72;84.21
27146;BME280;17980;51.744;7.190;2022-08-16T04:52:39;100198.59;;;23.60;84.92
27146;BME280;17980;51.744;7.190;2022-08-16T04:55:10;100201.98;;;23.79;83.94
27146;BME280;17980;51.744;7.190;2022-08-16T04:57:39;100200.67;;;23.67;84.69
27146;BME280;17980;51.744;7.190;2022-08-16T05:00:10;100198.67;;;23.94;83.69
27146;BME280;17980;51.744;7.190;2022-08-16T05:02:39;100202.75;;;23.88;83.94
27146;BME280;17980;51.744;7.190;2022-08-16T05:05:08;100211.20;;;23.79;84.10
27146;BME280;17980;51.744;7.190;2022-08-16T05:07:36;100214.77;;;23.89;83.80
27146;BME280;17980;51.744;7.190;2022-08-16T05:10:05;100208.42;;;23.94;83.64
27146;BME280;17980;51.744;7.190;2022-08-16T05:12:33;100217.84;;;24.07;82.97
27146;BME280;17980;51.744;7.190;2022-08-16T05:15:01;100217.88;;;23.93;83.39
27146;BME280;17980;51.744;7.190;2022-08-16T05:17:29;100220.41;;;24.09;82.94
27146;BME280;17980;51.744;7.190;2022-08-16T05:22:34;100221.13;;;24.04;83.25
27146;BME280;17980;51.744;7.190;2022-08-16T05:25:02;100231.95;;;24.00;83.10
27146;BME280;17980;51.744;7.190;2022-08-16T05:27:30;100223.04;;;24.01;83.26
27146;BME280;17980;51.744;7.190;2022-08-16T05:29:58;100218.19;;;24.11;83.06
27146;BME280;17980;51.744;7.190;2022-08-16T05:32:26;100222.93;;;24.10;82.95
27146;BME280;17980;51.744;7.190;2022-08-16T05:34:53;100229.22;;;24.03;83.38
27146;BME280;17980;51.744;7.190;2022-08-16T05:37:21;100234.52;;;23.87;84.02
27146;BME280;17980;51.744;7.190;2022-08-16T05:39:50;100236.29;;;23.94;83.54
27146;BME280;17980;51.744;7.190;2022-08-16T05:42:17;100242.03;;;24.04;83.32
27146;BME280;17980;51.744;7.190;2022-08-16T05:47:21;100238.98;;;24.20;83.05
27146;BME280;17980;51.744;7.190;2022-08-16T05:49:49;100232.12;;;24.11;83.00
27146;BME280;17980;51.744;7.190;2022-08-16T05:52:16;100234.08;;;24.10;83.02
27146;BME280;17980;51.744;7.190;2022-08-16T05:54:44;100244.00;;;24.20;82.69
27146;BME280;17980;51.744;7.190;2022-08-16T05:57:12;100248.97;;;24.18;82.41
27146;BME280;17980;51.744;7.190;2022-08-16T05:59:39;100246.02;;;24.42;81.46
27146;BME280;17980;51.744;7.190;2022-08-16T06:02:07;100245.34;;;24.35;81.72
27146;BME280;17980;51.744;7.190;2022-08-16T06:04:34;100246.52;;;24.56;81.26
27146;BME280;17980;51.744;7.190;2022-08-16T06:07:01;100250.30;;;24.47;81.24
27146;BME280;17980;51.744;7.190;2022-08-16T06:09:31;100253.66;;;24.49;81.52
27146;BME280;17980;51.744;7.190;2022-08-16T06:11:58;100252.48;;;24.45;81.26
27146;BME280;17980;51.744;7.190;2022-08-16T06:14:27;100253.86;;;24.79;80.64
27146;BME280;17980;51.744;7.190;2022-08-16T06:16:55;100259.88;;;24.88;80.22
27146;BME280;17980;51.744;7.190;2022-08-16T06:19:23;100262.22;;;24.77;79.83
27146;BME280;17980;51.744;7.190;2022-08-16T06:24:27;100263.97;;;25.24;78.80
27146;BME280;17980;51.744;7.190;2022-08-16T06:26:54;100259.45;;;24.99;79.54
27146;BME280;17980;51.744;7.190;2022-08-16T06:29:22;100261.25;;;24.68;80.27
27146;BME280;17980;51.744;7.190;2022-08-16T06:31:49;100265.62;;;25.23;79.12
27146;BME280;17980;51.744;7.190;2022-08-16T06:34:17;100268.42;;;25.23;79.03
27146;BME280;17980;51.744;7.190;2022-08-16T06:36:44;100268.46;;;25.25;78.17
27146;BME280;17980;51.744;7.190;2022-08-16T06:39:11;100266.05;;;25.54;76.95
27146;BME280;17980;51.744;7.190;2022-08-16T06:41:39;100263.06;;;25.60;76.41
27146;BME280;17980;51.744;7.190;2022-08-16T06:44:06;100266.77;;;25.44;77.06
27146;BME280;17980;51.744;7.190;2022-08-16T06:46:35;100264.58;;;25.46;77.06
27146;BME280;17980;51.744;7.190;2022-08-16T06:49:06;100264.93;;;25.80;76.55
27146;BME280;17980;51.744;7.190;2022-08-16T06:51:34;100263.69;;;26.22;74.59
27146;BME280;17980;51.744;7.190;2022-08-16T06:54:04;100271.45;;;26.15;74.70
27146;BME280;17980;51.744;7.190;2022-08-16T06:56:32;100266.94;;;26.09;75.10
27146;BME280;17980;51.744;7.190;2022-08-16T06:58:59;100279.31;;;26.18;74.82
27146;BME280;17980;51.744;7.190;2022-08-16T07:01:27;100277.20;;;26.01;75.35
27146;BME280;17980;51.744;7.190;2022-08-16T07:06:31;100279.33;;;25.93;75.79
27146;BME280;17980;51.744;7.190;2022-08-16T07:08:59;100280.89;;;25.82;76.13
27146;BME280;17980;51.744;7.190;2022-08-16T07:11:27;100288.78;;;26.44;74.71
27146;BME280;17980;51.744;7.190;2022-08-16T07:13:54;100289.99;;;26.21;75.25
27146;BME280;17980;51.744;7.190;2022-08-16T07:16:22;100288.61;;;27.44;71.62
27146;BME280;17980;51.744;7.190;2022-08-16T07:18:49;100297.23;;;30.30;62.89
27146;BME280;17980;51.744;7.190;2022-08-16T07:21:18;100291.02;;;32.29;55.56
27146;BME280;17980;51.744;7.190;2022-08-16T07:23:46;100286.73;;;33.56;54.68
27146;BME280;17980;51.744;7.190;2022-08-16T07:28:53;100296.23;;;37.25;46.03
27146;BME280;17980;51.744;7.190;2022-08-16T07:31:20;100289.70;;;35.43;48.01
27146;BME280;17980;51.744;7.190;2022-08-16T07:36:25;100295.59;;;35.04;48.93
27146;BME280;17980;51.744;7.190;2022-08-16T07:38:53;100295.82;;;36.82;46.15
27146;BME280;17980;51.744;7.190;2022-08-16T07:41:21;100291.66;;;37.71;45.07
27146;BME280;17980;51.744;7.190;2022-08-16T07:43:48;100290.09;;;35.97;47.04
27146;BME280;17980;51.744;7.190;2022-08-16T07:46:15;100299.48;;;34.97;49.13
27146;BME280;17980;51.744;7.190;2022-08-16T07:48:43;100302.41;;;34.60;49.54
27146;BME280;17980;51.744;7.190;2022-08-16T07:51:10;100308.50;;;36.76;46.42
27146;BME280;17980;51.744;7.190;2022-08-16T07:53:37;100308.81;;;35.29;48.12
27146;BME280;17980;51.744;7.190;2022-08-16T07:58:43;100316.34;;;38.24;43.69
27146;BME280;17980;51.744;7.190;2022-08-16T08:03:47;100313.62;;;38.49;43.44
27146;BME280;17980;51.744;7.190;2022-08-16T08:06:15;100311.48;;;39.81;41.55
27146;BME280;17980;51.744;7.190;2022-08-16T08:08:43;100316.69;;;39.30;42.22
27146;BME280;17980;51.744;7.190;2022-08-16T08:13:47;100332.89;;;39.81;41.22
27146;BME280;17980;51.744;7.190;2022-08-16T08:16:15;100329.76;;;39.99;41.31
27146;BME280;17980;51.744;7.190;2022-08-16T08:18:42;100333.55;;;41.06;39.79
27146;BME280;17980;51.744;7.190;2022-08-16T08:21:10;100344.53;;;41.84;39.04
27146;BME280;17980;51.744;7.190;2022-08-16T08:23:38;100344.12;;;40.27;40.54
27146;BME280;17980;51.744;7.190;2022-08-16T08:26:05;100340.73;;;40.03;40.62
27146;BME280;17980;51.744;7.190;2022-08-16T08:28:33;100350.38;;;40.51;40.24
27146;BME280;17980;51.744;7.190;2022-08-16T08:31:00;100353.25;;;39.80;40.85
27146;BME280;17980;51.744;7.190;2022-08-16T08:33:28;100354.53;;;39.82;40.96
27146;BME280;17980;51.744;7.190;2022-08-16T08:38:34;100341.20;;;41.18;39.68
27146;BME280;17980;51.744;7.190;2022-08-16T08:41:02;100349.06;;;39.71;40.26
27146;BME280;17980;51.744;7.190;2022-08-16T08:43:30;100347.23;;;38.77;41.37
27146;BME280;17980;51.744;7.190;2022-08-16T08:45:58;100352.45;;;41.81;38.31
27146;BME280;17980;51.744;7.190;2022-08-16T08:51:03;100361.00;;;41.97;37.43
27146;BME280;17980;51.744;7.190;2022-08-16T08:53:31;100362.08;;;41.67;37.65
27146;BME280;17980;51.744;7.190;2022-08-16T08:58:35;100364.81;;;43.19;36.55
27146;BME280;17980;51.744;7.190;2022-08-16T09:01:04;100363.78;;;43.30;36.70
27146;BME280;17980;51.744;7.190;2022-08-16T09:03:37;100367.88;;;40.03;39.60
27146;BME280;17980;51.744;7.190;2022-08-16T09:08:43;100361.53;;;41.29;38.79
27146;BME280;17980;51.744;7.190;2022-08-16T09:11:11;100360.34;;;40.64;39.05
27146;BME280;17980;51.744;7.190;2022-08-16T09:13:38;100366.89;;;36.82;43.53
27146;BME280;17980;51.744;7.190;2022-08-16T09:18:43;100367.89;;;35.67;46.16
27146;BME280;17980;51.744;7.190;2022-08-16T09:21:12;100375.35;;;35.11;47.07
27146;BME280;17980;51.744;7.190;2022-08-16T09:23:40;100360.07;;;33.80;49.22
27146;BME280;17980;51.744;7.190;2022-08-16T09:26:08;100363.61;;;34.84;47.71
27146;BME280;17980;51.744;7.190;2022-08-16T09:28:36;100367.03;;;36.50;45.28
27146;BME280;17980;51.744;7.190;2022-08-16T09:31:05;100368.05;;;38.35;42.29
27146;BME280;17980;51.744;7.190;2022-08-16T09:36:10;100368.36;;;39.74;41.68
27146;BME280;17980;51.744;7.190;2022-08-16T09:38:38;100376.22;;;39.58;40.91
27146;BME280;17980;51.744;7.190;2022-08-16T09:41:07;100366.16;;;41.66;38.95
27146;BME280;17980;51.744;7.190;2022-08-16T09:43:36;100373.05;;;43.93;36.61
27146;BME280;17980;51.744;7.190;2022-08-16T09:46:05;100374.36;;;43.73;36.07
27146;BME280;17980;51.744;7.190;2022-08-16T09:51:12;100375.64;;;41.06;38.84
27146;BME280;17980;51.744;7.190;2022-08-16T09:53:39;100373.36;;;41.59;38.04
27146;BME280;17980;51.744;7.190;2022-08-16T09:56:17;100373.94;;;41.81;37.24
27146;BME280;17980;51.744;7.190;2022-08-16T09:58:39;100367.28;;;40.78;38.57
27146;BME280;17980;51.744;7.190;2022-08-16T10:01:07;100368.87;;;38.63;41.78
27146;BME280;17980;51.744;7.190;2022-08-16T10:06:11;100367.55;;;41.56;37.97
27146;BME280;17980;51.744;7.190;2022-08-16T10:08:38;100362.14;;;42.38;36.80
27146;BME280;17980;51.744;7.190;2022-08-16T10:11:05;100362.58;;;42.40;36.80
27146;BME280;17980;51.744;7.190;2022-08-16T10:13:51;100368.52;;;39.25;39.47
27146;BME280;17980;51.744;7.190;2022-08-16T10:16:18;100350.82;;;41.26;37.92
27146;BME280;17980;51.744;7.190;2022-08-16T10:21:22;100353.93;;;36.61;43.43
27146;BME280;17980;51.744;7.190;2022-08-16T10:23:50;100354.02;;;35.14;45.39
27146;BME280;17980;51.744;7.190;2022-08-16T10:26:18;100348.70;;;34.44;46.76
27146;BME280;17980;51.744;7.190;2022-08-16T10:31:23;100348.25;;;32.70;49.94
27146;BME280;17980;51.744;7.190;2022-08-16T10:36:27;100353.41;;;32.08;50.05
27146;BME280;17980;51.744;7.190;2022-08-16T10:38:55;100347.64;;;32.19;50.37
27146;BME280;17980;51.744;7.190;2022-08-16T10:41:22;100348.16;;;31.99;49.49
27146;BME280;17980;51.744;7.190;2022-08-16T10:46:27;100355.84;;;32.37;48.88
27146;BME280;17980;51.744;7.190;2022-08-16T10:48:54;100355.91;;;33.00;48.66
27146;BME280;17980;51.744;7.190;2022-08-16T10:51:22;100353.17;;;33.28;46.35
27146;BME280;17980;51.744;7.190;2022-08-16T10:53:49;100350.64;;;32.60;48.01
27146;BME280;17980;51.744;7.190;2022-08-16T10:56:17;100358.76;;;32.65;48.68
27146;BME280;17980;51.744;7.190;2022-08-16T10:58:44;100365.36;;;32.79;48.40
27146;BME280;17980;51.744;7.190;2022-08-16T11:01:11;100364.38;;;33.61;48.02
27146;BME280;17980;51.744;7.190;2022-08-16T11:06:18;100370.05;;;33.00;46.76
27146;BME280;17980;51.744;7.190;2022-08-16T11:08:45;100358.66;;;33.05;46.04
27146;BME280;17980;51.744;7.190;2022-08-16T11:13:50;100362.58;;;33.82;45.56
27146;BME280;17980;51.744;7.190;2022-08-16T11:16:18;100364.58;;;32.90;46.54
27146;BME280;17980;51.744;7.190;2022-08-16T11:18:45;100364.83;;;32.58;47.42
27146;BME280;17980;51.744;7.190;2022-08-16T11:21:14;100362.64;;;32.71;47.70
27146;BME280;17980;51.744;7.190;2022-08-16T11:23:42;100360.53;;;33.43;46.56
27146;BME280;17980;51.744;7.190;2022-08-16T11:26:09;100369.94;;;33.52;46.13
27146;BME280;17980;51.744;7.190;2022-08-16T11:28:36;100366.21;;;33.26;46.52
27146;BME280;17980;51.744;7.190;2022-08-16T11:31:04;100369.39;;;33.22;46.83
27146;BME280;17980;51.744;7.190;2022-08-16T11:33:31;100367.07;;;33.55;46.76
27146;BME280;17980;51.744;7.190;2022-08-16T11:35:59;100364.99;;;33.30;46.55
27146;BME280;17980;51.744;7.190;2022-08-16T11:41:04;100370.72;;;33.55;46.51
27146;BME280;17980;51.744;7.190;2022-08-16T11:43:34;100370.33;;;32.68;46.76
27146;BME280;17980;51.744;7.190;2022-08-16T11:46:04;100361.92;;;33.29;46.55
27146;BME280;17980;51.744;7.190;2022-08-16T11:48:32;100363.51;;;33.63;45.98
27146;BME280;17980;51.744;7.190;2022-08-16T11:51:00;100370.36;;;32.99;46.31
27146;BME280;17980;51.744;7.190;2022-08-16T11:53:29;100368.16;;;33.70;45.59
27146;BME280;17980;51.744;7.190;2022-08-16T11:58:35;100366.41;;;33.30;45.76
27146;BME280;17980;51.744;7.190;2022-08-16T12:01:06;100360.73;;;33.74;45.78
27146;BME280;17980;51.744;7.190;2022-08-16T12:03:34;100357.62;;;34.01;45.20
27146;BME280;17980;51.744;7.190;2022-08-16T12:06:05;100364.36;;;34.17;45.35
27146;BME280;17980;51.744;7.190;2022-08-16T12:08:35;100365.53;;;34.27;45.65
27146;BME280;17980;51.744;7.190;2022-08-16T12:11:02;100364.33;;;33.50;45.19
27146;BME280;17980;51.744;7.190;2022-08-16T12:13:31;100372.80;;;33.80;45.45
27146;BME280;17980;51.744;7.190;2022-08-16T12:15:58;100363.19;;;33.51;45.01
27146;BME280;17980;51.744;7.190;2022-08-16T12:21:04;100366.64;;;33.89;44.57
27146;BME280;17980;51.744;7.190;2022-08-16T12:23:31;100371.49;;;34.28;44.13
27146;BME280;17980;51.744;7.190;2022-08-16T12:28:37;100369.51;;;34.01;45.87
27146;BME280;17980;51.744;7.190;2022-08-16T12:31:05;100367.24;;;34.14;44.99
27146;BME280;17980;51.744;7.190;2022-08-16T12:33:32;100366.73;;;34.60;43.71
27146;BME280;17980;51.744;7.190;2022-08-16T12:35:59;100360.56;;;33.96;43.88
27146;BME280;17980;51.744;7.190;2022-08-16T12:38:27;100357.41;;;33.11;45.19
27146;BME280;17980;51.744;7.190;2022-08-16T12:40:55;100366.14;;;33.87;45.00
27146;BME280;17980;51.744;7.190;2022-08-16T12:43:23;100372.61;;;34.02;43.46
27146;BME280;17980;51.744;7.190;2022-08-16T12:48:31;100372.98;;;34.37;43.93
27146;BME280;17980;51.744;7.190;2022-08-16T12:51:19;100370.91;;;34.40;43.40
27146;BME280;17980;51.744;7.190;2022-08-16T12:53:48;100367.11;;;34.44;43.48
27146;BME280;17980;51.744;7.190;2022-08-16T12:58:55;100368.44;;;34.10;43.63
27146;BME280;17980;51.744;7.190;2022-08-16T13:01:26;100362.27;;;34.08;43.84
27146;BME280;17980;51.744;7.190;2022-08-16T13:03:55;100365.42;;;33.23;44.68
27146;BME280;17980;51.744;7.190;2022-08-16T13:06:24;100374.31;;;32.84;45.31
27146;BME280;17980;51.744;7.190;2022-08-16T13:08:52;100367.72;;;33.05;44.53
27146;BME280;17980;51.744;7.190;2022-08-16T13:14:00;100358.81;;;34.37;42.37
27146;BME280;17980;51.744;7.190;2022-08-16T13:19:05;100360.24;;;34.48;42.48
27146;BME280;17980;51.744;7.190;2022-08-16T13:21:32;100363.97;;;35.03;40.97
27146;BME280;17980;51.744;7.190;2022-08-16T13:23:59;100359.56;;;35.50;40.35
27146;BME280;17980;51.744;7.190;2022-08-16T13:26:27;100362.77;;;34.95;41.52
27146;BME280;17980;51.744;7.190;2022-08-16T13:31:31;100354.64;;;35.54;40.92
27146;BME280;17980;51.744;7.190;2022-08-16T13:33:58;100356.84;;;34.94;41.39
27146;BME280;17980;51.744;7.190;2022-08-16T13:36:26;100358.58;;;35.35;41.45
27146;BME280;17980;51.744;7.190;2022-08-16T13:41:30;100356.70;;;34.42;41.52
27146;BME280;17980;51.744;7.190;2022-08-16T13:43:59;100355.03;;;34.02;42.12
27146;BME280;17980;51.744;7.190;2022-08-16T13:46:28;100356.00;;;34.48;41.55
27146;BME280;17980;51.744;7.190;2022-08-16T13:48:56;100355.16;;;34.81;40.96
27146;BME280;17980;51.744;7.190;2022-08-16T13:51:23;100347.12;;;34.27;42.25
27146;BME280;17980;51.744;7.190;2022-08-16T13:56:31;100359.77;;;34.43;44.39
27146;BME280;17980;51.744;7.190;2022-08-16T13:58:59;100357.47;;;34.57;43.97
27146;BME280;17980;51.744;7.190;2022-08-16T14:01:26;100360.09;;;34.53;42.33
27146;BME280;17980;51.744;7.190;2022-08-16T14:03:54;100359.37;;;34.36;42.01
27146;BME280;17980;51.744;7.190;2022-08-16T14:08:58;100361.56;;;34.39;42.45
27146;BME280;17980;51.744;7.190;2022-08-16T14:11:26;100358.38;;;33.93;43.83
27146;BME280;17980;51.744;7.190;2022-08-16T14:13:53;100354.46;;;33.77;43.93
27146;BME280;17980;51.744;7.190;2022-08-16T14:16:21;100355.70;;;33.71;43.63
27146;BME280;17980;51.744;7.190;2022-08-16T14:18:48;100360.34;;;34.18;44.53
27146;BME280;17980;51.744;7.190;2022-08-16T14:21:15;100347.78;;;33.57;43.84
27146;BME280;17980;51.744;7.190;2022-08-16T14:23:42;100353.64;;;33.77;43.93
27146;BME280;17980;51.744;7.190;2022-08-16T14:28:38;100361.28;;;34.75;41.80
27146;BME280;17980;51.744;7.190;2022-08-16T14:31:06;100362.44;;;34.01;42.16
27146;BME280;17980;51.744;7.190;2022-08-16T14:33:33;100363.05;;;33.44;42.66
27146;BME280;17980;51.744;7.190;2022-08-16T14:36:00;100356.81;;;34.37;42.26
27146;BME280;17980;51.744;7.190;2022-08-16T14:38:27;100367.40;;;34.06;42.91
27146;BME280;17980;51.744;7.190;2022-08-16T14:43:32;100360.69;;;34.53;43.73
27146;BME280;17980;51.744;7.190;2022-08-16T14:56:12;100367.88;;;33.86;43.75
27146;BME280;17980;51.744;7.190;2022-08-16T14:58:39;100365.84;;;33.72;43.40
27146;BME280;17980;51.744;7.190;2022-08-16T15:01:07;100370.57;;;33.91;43.66
27146;BME280;17980;51.744;7.190;2022-08-16T15:03:34;100368.42;;;33.85;44.34
27146;BME280;17980;51.744;7.190;2022-08-16T15:06:01;100366.43;;;33.72;44.00
27146;BME280;17980;51.744;7.190;2022-08-16T15:08:29;100371.45;;;33.47;43.78
27146;BME280;17980;51.744;7.190;2022-08-16T15:10:56;100371.89;;;33.40;44.83
27146;BME280;17980;51.744;7.190;2022-08-16T15:13:24;100370.88;;;33.34;44.59
27146;BME280;17980;51.744;7.190;2022-08-16T15:15:51;100376.73;;;33.23;44.46
27146;BME280;17980;51.744;7.190;2022-08-16T15:18:19;100370.61;;;33.33;43.92
27146;BME280;17980;51.744;7.190;2022-08-16T15:20:46;100371.39;;;33.36;43.83
27146;BME280;17980;51.744;7.190;2022-08-16T15:23:13;100370.23;;;33.06;44.33
27146;BME280;17980;51.744;7.190;2022-08-16T15:25:43;100371.28;;;33.27;44.75